createdAt,value
2018-08-24T00:00:20.568Z,100094.27
2018-08-24T00:02:47.539Z,100095.54
2018-08-24T00:05:14.636Z,100094.63
2018-08-24T00:07:41.736Z,100092.41
2018-08-24T00:10:09.096Z,100080.91
2018-08-24T00:12:36.152Z,100077.98
2018-08-24T00:15:03.175Z,100077.51
2018-08-24T00:17:30.875Z,100069.91
2018-08-24T00:19:58.260Z,100071.98
2018-08-24T00:22:25.239Z,100063.82
2018-08-24T00:24:52.707Z,100058.30
2018-08-24T00:27:19.831Z,100052.78
2018-08-24T00:29:46.799Z,100045.52
2018-08-24T00:32:13.769Z,100053.48
2018-08-24T00:34:40.792Z,100047.13
2018-08-24T00:37:07.780Z,100050.00
2018-08-24T00:39:34.792Z,100047.45
2018-08-24T00:42:02.070Z,100039.70
2018-08-24T00:44:29.129Z,100045.59
2018-08-24T00:46:56.191Z,100043.05
2018-08-24T00:49:23.636Z,100038.31
2018-08-24T00:51:50.677Z,100038.74
2018-08-24T00:54:17.676Z,100042.08
2018-08-24T00:56:44.695Z,100035.65
2018-08-24T00:59:11.720Z,100031.41
2018-08-24T01:01:38.710Z,100028.02
2018-08-24T01:04:05.729Z,100037.31
2018-08-24T01:06:33.224Z,100033.47
2018-08-24T01:09:00.195Z,100041.48
2018-08-24T01:11:33.154Z,100031.30
2018-08-24T01:14:00.231Z,100034.22
2018-08-24T01:16:32.917Z,100032.95
2018-08-24T01:18:59.916Z,100023.23
2018-08-24T01:21:26.903Z,100020.66
2018-08-24T01:23:53.927Z,100018.05
2018-08-24T01:26:21.147Z,100018.05
2018-08-24T01:28:48.223Z,100019.31
2018-08-24T01:31:15.575Z,100014.23
2018-08-24T01:33:42.544Z,100023.09
2018-08-24T01:36:09.539Z,100028.16
2018-08-24T01:38:36.579Z,100026.00
2018-08-24T01:41:03.651Z,100023.02
2018-08-24T01:43:30.711Z,100022.59
2018-08-24T01:46:03.532Z,100025.92
2018-08-24T01:48:30.492Z,100016.61
2018-08-24T01:50:57.484Z,100013.20
2018-08-24T01:53:24.843Z,100006.84
2018-08-24T01:55:51.816Z,100010.60
2018-08-24T01:58:18.817Z,100018.61
2018-08-24T02:00:45.820Z,100016.06
2018-08-24T02:03:12.792Z,100016.54
2018-08-24T02:05:40.075Z,100016.16
2018-08-24T02:08:07.156Z,100018.30
2018-08-24T02:10:34.140Z,100014.06
2018-08-24T02:13:06.818Z,100018.34
2018-08-24T02:15:33.975Z,100009.47
2018-08-24T02:18:06.683Z,100011.14
2018-08-24T02:20:39.432Z,100017.15
2018-08-24T02:23:12.851Z,100015.08
2018-08-24T02:25:40.516Z,100015.50
2018-08-24T02:28:07.668Z,100015.06
2018-08-24T02:30:34.701Z,100018.73
2018-08-24T02:33:01.968Z,100025.98
2018-08-24T02:35:29.057Z,100042.25
2018-08-24T02:37:56.030Z,100048.25
2018-08-24T02:40:23.004Z,100023.50
2018-08-24T02:42:49.985Z,100014.56
2018-08-24T02:45:16.980Z,100018.22
2018-08-24T02:47:44.077Z,100010.88
2018-08-24T02:50:11.080Z,100003.34
2018-08-24T02:52:38.165Z,100005.05
2018-08-24T02:55:05.256Z,100008.59
2018-08-24T02:57:32.338Z,100008.49
2018-08-24T02:59:59.443Z,100005.56
2018-08-24T03:02:27.979Z,100013.50
2018-08-24T03:04:55.067Z,100020.13
2018-08-24T03:07:22.263Z,100016.16
2018-08-24T03:09:49.284Z,100006.35
2018-08-24T03:12:16.667Z,100007.56
2018-08-24T03:14:43.656Z,100003.21
2018-08-24T03:17:16.530Z,100006.59
2018-08-24T03:19:43.511Z,100008.61
2018-08-24T03:22:10.660Z,100011.58
2018-08-24T03:24:38.160Z,100008.22
2018-08-24T03:27:05.299Z,100009.87
2018-08-24T03:29:32.372Z,100015.09
2018-08-24T03:31:59.368Z,100011.19
2018-08-24T03:34:26.355Z,100011.19
2018-08-24T03:36:53.350Z,100016.58
2018-08-24T03:39:20.379Z,100025.89
2018-08-24T03:41:47.353Z,100023.65
2018-08-24T03:44:14.364Z,100031.52
2018-08-24T03:46:42.137Z,100033.52
2018-08-24T03:49:09.115Z,100036.87
2018-08-24T03:51:36.123Z,100038.94
2018-08-24T03:54:07.772Z,100036.87
2018-08-24T03:56:34.829Z,100040.84
2018-08-24T03:59:01.882Z,100040.47
2018-08-24T04:01:28.889Z,100045.91
2018-08-24T04:03:55.892Z,100044.17
2018-08-24T04:06:22.897Z,100039.52
2018-08-24T04:08:49.951Z,100042.06
2018-08-24T04:11:17.035Z,100044.09
2018-08-24T04:13:44.028Z,100044.94
2018-08-24T04:16:11.011Z,100034.84
2018-08-24T04:18:38.004Z,100037.05
2018-08-24T04:21:05.016Z,100028.16
2018-08-24T04:23:31.992Z,100040.80
2018-08-24T04:25:59.116Z,100039.11
2018-08-24T04:28:26.020Z,100036.91
2018-08-24T04:30:53.008Z,100039.34
2018-08-24T04:33:20.303Z,100041.88
2018-08-24T04:35:47.291Z,100044.41
2018-08-24T04:38:14.351Z,100046.09
2018-08-24T04:40:41.635Z,100043.99
2018-08-24T04:43:08.624Z,100052.35
2018-08-24T04:45:35.640Z,100054.34
2018-08-24T04:48:03.290Z,100060.97
2018-08-24T04:50:30.296Z,100058.25
2018-08-24T04:52:57.293Z,100061.03
2018-08-24T04:55:24.538Z,100070.17
2018-08-24T04:57:51.516Z,100062.29
2018-08-24T05:00:18.616Z,100062.70
2018-08-24T05:02:45.637Z,100061.30
2018-08-24T05:05:12.655Z,100063.98
2018-08-24T05:07:39.723Z,100073.12
2018-08-24T05:10:06.788Z,100069.63
2018-08-24T05:12:33.893Z,100072.98
2018-08-24T05:15:01.101Z,100085.12
2018-08-24T05:17:28.678Z,100085.23
2018-08-24T05:19:56.021Z,100083.20
2018-08-24T05:22:23.019Z,100078.45
2018-08-24T05:24:50.144Z,100077.84
2018-08-24T05:27:17.038Z,100079.58
2018-08-24T05:29:44.028Z,100076.64
2018-08-24T05:32:11.015Z,100091.09
2018-08-24T05:34:38.025Z,100085.19
2018-08-24T05:37:05.015Z,100084.02
2018-08-24T05:39:32.008Z,100076.23
2018-08-24T05:41:59.447Z,100082.82
2018-08-24T05:44:26.672Z,100082.48
2018-08-24T05:46:53.662Z,100077.77
2018-08-24T05:49:21.657Z,100074.48
2018-08-24T05:51:48.739Z,100075.34
2018-08-24T05:54:15.898Z,100080.61
2018-08-24T05:56:43.159Z,100083.41
2018-08-24T05:59:10.141Z,100076.75
2018-08-24T06:01:37.155Z,100081.80
2018-08-24T06:04:04.223Z,100087.41
2018-08-24T06:06:31.567Z,100086.97
2018-08-24T06:09:04.413Z,100084.98
2018-08-24T06:11:31.532Z,100099.03
2018-08-24T06:13:58.849Z,100093.02
2018-08-24T06:16:25.851Z,100091.44
2018-08-24T06:18:52.841Z,100092.50
2018-08-24T06:21:19.860Z,100095.89
2018-08-24T06:23:46.859Z,100092.36
2018-08-24T06:26:13.841Z,100099.03
2018-08-24T06:28:41.027Z,100097.25
2018-08-24T06:31:08.379Z,100104.67
2018-08-24T06:33:35.493Z,100102.34
2018-08-24T06:36:02.492Z,100114.89
2018-08-24T06:38:29.484Z,100113.18
2018-08-24T06:40:56.571Z,100109.83
2018-08-24T06:43:23.631Z,100106.48
2018-08-24T06:45:50.617Z,100108.28
2018-08-24T06:48:18.299Z,100107.59
2018-08-24T06:50:45.423Z,100111.30
2018-08-24T06:53:12.511Z,100111.46
2018-08-24T06:55:39.484Z,100113.99
2018-08-24T06:58:06.481Z,100113.20
2018-08-24T07:00:33.478Z,100118.79
2018-08-24T07:03:01.756Z,100121.66
2018-08-24T07:05:29.092Z,100126.38
2018-08-24T07:07:56.072Z,100126.89
2018-08-24T07:10:23.520Z,100132.84
2018-08-24T07:12:51.135Z,100136.09
2018-08-24T07:15:18.167Z,100141.30
2018-08-24T07:17:50.939Z,100138.96
2018-08-24T07:20:18.019Z,100141.39
2018-08-24T07:22:45.000Z,100144.22
2018-08-24T07:25:12.028Z,100140.67
2018-08-24T07:27:39.089Z,100152.20
2018-08-24T07:30:06.116Z,100151.79
2018-08-24T07:32:33.178Z,100156.29
2018-08-24T07:35:00.242Z,100160.81
2018-08-24T07:37:27.240Z,100160.61
2018-08-24T07:39:54.228Z,100163.23
2018-08-24T07:42:21.198Z,100174.18
2018-08-24T07:44:51.316Z,100171.68
2018-08-24T07:47:18.921Z,100166.73
2018-08-24T07:49:45.977Z,100171.00
2018-08-24T07:52:12.968Z,100159.88
2018-08-24T07:54:39.976Z,100155.95
2018-08-24T07:57:07.145Z,100157.73
2018-08-24T07:59:34.065Z,100161.44
2018-08-24T08:02:01.470Z,100162.30
2018-08-24T08:04:29.812Z,100174.02
2018-08-24T08:06:56.805Z,100160.91
2018-08-24T08:09:23.905Z,100146.52
2018-08-24T08:11:50.903Z,100159.73
2018-08-24T08:14:17.915Z,100157.38
2018-08-24T08:16:44.919Z,100157.85
2018-08-24T08:19:11.994Z,100164.59
2018-08-24T08:21:39.092Z,100156.73
2018-08-24T08:24:06.144Z,100159.87
2018-08-24T08:26:33.172Z,100159.61
2018-08-24T08:29:00.148Z,100169.52
2018-08-24T08:31:27.245Z,100166.75
2018-08-24T08:33:54.257Z,100164.24
2018-08-24T08:36:21.248Z,100166.95
2018-08-24T08:38:48.366Z,100165.72
2018-08-24T08:41:15.363Z,100166.30
2018-08-24T08:43:42.364Z,100169.25
2018-08-24T08:46:09.445Z,100176.52
2018-08-24T08:48:36.428Z,100171.51
2018-08-24T08:51:03.432Z,100169.80
2018-08-24T08:53:30.557Z,100165.30
2018-08-24T08:55:57.456Z,100167.89
2018-08-24T08:58:24.501Z,100179.63
2018-08-24T09:00:51.516Z,100182.22
2018-08-24T09:03:18.597Z,100185.77
2018-08-24T09:05:45.943Z,100185.67
2018-08-24T09:08:13.352Z,100182.11
2018-08-24T09:10:40.393Z,100171.64
2018-08-24T09:13:07.416Z,100135.05
2018-08-24T09:15:34.432Z,100167.53
2018-08-24T09:18:07.050Z,100176.52
2018-08-24T09:20:40.100Z,100179.29
2018-08-24T09:23:13.216Z,100181.88
2018-08-24T09:25:45.898Z,100184.50
2018-08-24T09:28:22.826Z,100187.34
2018-08-24T09:30:53.448Z,100183.45
2018-08-24T09:33:20.533Z,100186.34
2018-08-24T09:35:47.851Z,100187.47
2018-08-24T09:38:15.116Z,100186.23
2018-08-24T09:40:47.786Z,100190.45
2018-08-24T09:43:20.883Z,100192.10
2018-08-24T09:45:47.915Z,100197.58
2018-08-24T09:48:21.035Z,100204.21
2018-08-24T09:50:54.550Z,100202.18
2018-08-24T09:53:27.504Z,100206.80
2018-08-24T09:55:54.682Z,100202.19
2018-08-24T09:58:21.734Z,100203.97
2018-08-24T10:00:54.735Z,100202.56
2018-08-24T10:03:27.464Z,100185.87
2018-08-24T10:06:00.351Z,100193.16
2018-08-24T10:08:34.162Z,100193.90
2018-08-24T10:11:03.835Z,100194.25
2018-08-24T10:13:30.947Z,100193.51
2018-08-24T10:15:57.951Z,100198.42
2018-08-24T10:18:24.931Z,100197.42
2018-08-24T10:20:51.939Z,100194.34
2018-08-24T10:23:18.920Z,100200.25
2018-08-24T10:25:45.912Z,100194.98
2018-08-24T10:28:13.251Z,100191.91
2018-08-24T10:30:40.288Z,100198.81
2018-08-24T10:33:07.276Z,100197.77
2018-08-24T10:35:34.285Z,100198.39
2018-08-24T10:38:01.300Z,100187.70
2018-08-24T10:40:28.319Z,100193.54
2018-08-24T10:42:55.403Z,100192.52
2018-08-24T10:45:22.467Z,100191.97
2018-08-24T10:47:49.496Z,100195.66
2018-08-24T10:50:16.511Z,100203.69
2018-08-24T10:52:43.496Z,100203.85
2018-08-24T10:55:10.503Z,100204.50
2018-08-24T10:57:37.738Z,100202.49
2018-08-24T11:00:05.155Z,100205.48
2018-08-24T11:02:32.135Z,100207.73
2018-08-24T11:04:59.316Z,100213.73
2018-08-24T11:07:26.385Z,100196.70
2018-08-24T11:09:53.317Z,100198.77
2018-08-24T11:12:20.328Z,100200.75
2018-08-24T11:14:47.364Z,100199.20
2018-08-24T11:17:14.361Z,100202.14
2018-08-24T11:19:41.467Z,100192.58
2018-08-24T11:22:08.472Z,100196.14
2018-08-24T11:24:35.560Z,100193.01
2018-08-24T11:27:02.655Z,100193.52
2018-08-24T11:29:29.672Z,100199.64
2018-08-24T11:31:56.747Z,100182.30
2018-08-24T11:34:23.849Z,100192.56
2018-08-24T11:36:50.853Z,100189.79
2018-08-24T11:39:17.902Z,100198.62
2018-08-24T11:41:45.056Z,100188.37
2018-08-24T11:44:12.036Z,100189.48
2018-08-24T11:46:39.037Z,100195.40
2018-08-24T11:49:06.315Z,100196.84
2018-08-24T11:51:33.336Z,100210.39
2018-08-24T11:54:01.082Z,100217.41
2018-08-24T11:56:28.473Z,100226.38
2018-08-24T11:58:55.515Z,100217.34
2018-08-24T12:01:22.480Z,100210.48
2018-08-24T12:03:49.491Z,100208.94
2018-08-24T12:06:16.504Z,100208.50
2018-08-24T12:08:50.649Z,100213.32
2018-08-24T12:11:17.696Z,100216.16
2018-08-24T12:13:44.717Z,100212.38
2018-08-24T12:16:11.830Z,100223.27
2018-08-24T12:18:39.142Z,100218.17
2018-08-24T12:21:06.663Z,100218.27
2018-08-24T12:23:33.671Z,100225.20
2018-08-24T12:26:00.661Z,100229.65
2018-08-24T12:28:27.852Z,100219.09
2018-08-24T12:30:54.911Z,100228.61
2018-08-24T12:33:22.072Z,100227.49
2018-08-24T12:35:49.056Z,100226.59
2018-08-24T12:38:16.033Z,100228.33
2018-08-24T12:40:43.725Z,100234.91
2018-08-24T12:43:10.807Z,100230.63
2018-08-24T12:45:37.815Z,100225.64
2018-08-24T12:48:05.430Z,100234.16
2018-08-24T12:50:32.492Z,100229.02
2018-08-24T12:52:59.472Z,100234.96
2018-08-24T12:55:26.559Z,100245.58
2018-08-24T12:57:53.521Z,100237.72
2018-08-24T13:00:20.509Z,100232.77
2018-08-24T13:02:47.535Z,100223.37
2018-08-24T13:05:14.611Z,100227.13
2018-08-24T13:07:41.671Z,100233.50
2018-08-24T13:10:08.695Z,100239.13
2018-08-24T13:12:35.672Z,100239.02
2018-08-24T13:15:03.743Z,100242.56
2018-08-24T13:17:30.812Z,100268.41
2018-08-24T13:19:57.783Z,100267.02
2018-08-24T13:22:24.867Z,100274.50
2018-08-24T13:24:51.958Z,100273.42
2018-08-24T13:27:19.007Z,100272.23
2018-08-24T13:29:46.152Z,100273.17
2018-08-24T13:32:13.762Z,100272.05
2018-08-24T13:34:40.908Z,100283.19
2018-08-24T13:37:08.183Z,100282.59
2018-08-24T13:39:35.232Z,100289.01
2018-08-24T13:42:03.072Z,100292.91
2018-08-24T13:44:30.339Z,100297.05
2018-08-24T13:46:57.655Z,100295.91
2018-08-24T13:49:24.642Z,100286.66
2018-08-24T13:51:51.654Z,100301.68
2018-08-24T13:54:18.968Z,100300.73
2018-08-24T13:56:46.063Z,100301.77
2018-08-24T13:59:13.065Z,100299.20
2018-08-24T14:01:40.198Z,100295.34
2018-08-24T14:04:07.834Z,100301.48
2018-08-24T14:06:35.096Z,100303.41
2018-08-24T14:09:02.765Z,100290.36
2018-08-24T14:11:29.772Z,100296.32
2018-08-24T14:13:59.252Z,100296.84
2018-08-24T14:16:26.348Z,100287.22
2018-08-24T14:18:53.402Z,100290.11
2018-08-24T14:21:20.470Z,100293.11
2018-08-24T14:23:48.142Z,100300.80
2018-08-24T14:26:15.150Z,100297.89
2018-08-24T14:28:42.407Z,100301.09
2018-08-24T14:31:09.473Z,100294.77
2018-08-24T14:33:36.984Z,100297.08
2018-08-24T14:36:04.003Z,100289.43
2018-08-24T14:38:31.100Z,100295.25
2018-08-24T14:40:58.095Z,100289.93
2018-08-24T14:43:25.210Z,100293.27
2018-08-24T14:45:52.196Z,100287.41
2018-08-24T14:48:19.408Z,100294.56
2018-08-24T14:50:46.439Z,100291.36
2018-08-24T14:53:13.450Z,100289.67
2018-08-24T14:55:40.520Z,100291.17
2018-08-24T14:58:07.551Z,100286.37
2018-08-24T15:00:34.576Z,100288.63
2018-08-24T15:03:01.589Z,100289.09
2018-08-24T15:05:28.580Z,100278.70
2018-08-24T15:07:55.640Z,100280.36
2018-08-24T15:10:22.644Z,100280.28
2018-08-24T15:12:49.647Z,100277.93
2018-08-24T15:15:16.747Z,100295.36
2018-08-24T15:17:43.744Z,100297.23
2018-08-24T15:20:10.826Z,100289.36
2018-08-24T15:22:37.952Z,100288.16
2018-08-24T15:25:04.967Z,100290.72
2018-08-24T15:27:31.971Z,100294.06
2018-08-24T15:29:59.040Z,100296.41
2018-08-24T15:32:25.966Z,100294.23
2018-08-24T15:34:53.391Z,100282.89
2018-08-24T15:37:20.653Z,100279.12
2018-08-24T15:39:47.667Z,100274.58
2018-08-24T15:42:14.879Z,100270.30
2018-08-24T15:44:42.088Z,100267.34
2018-08-24T15:47:09.339Z,100260.22
2018-08-24T15:49:36.415Z,100260.76
2018-08-24T15:52:03.431Z,100253.13
2018-08-24T15:54:30.679Z,100258.77
2018-08-24T15:56:57.644Z,100244.33
2018-08-24T15:59:24.843Z,100248.53
2018-08-24T16:01:51.876Z,100250.39
2018-08-24T16:04:19.285Z,100238.97
2018-08-24T16:06:46.323Z,100234.64
2018-08-24T16:09:13.647Z,100235.00
2018-08-24T16:11:40.675Z,100229.77
2018-08-24T16:14:09.007Z,100233.06
2018-08-24T16:16:36.079Z,100230.61
2018-08-24T16:19:03.083Z,100235.75
2018-08-24T16:21:30.241Z,100248.95
2018-08-24T16:23:57.304Z,100245.71
2018-08-24T16:26:25.192Z,100263.35
2018-08-24T16:28:52.540Z,100264.72
2018-08-24T16:31:19.683Z,100270.26
2018-08-24T16:33:46.698Z,100276.62
2018-08-24T16:36:14.610Z,100281.70
2018-08-24T16:38:42.659Z,100282.45
2018-08-24T16:41:09.781Z,100287.55
2018-08-24T16:43:36.759Z,100280.40
2018-08-24T16:46:03.757Z,100264.67
2018-08-24T16:48:30.739Z,100260.96
2018-08-24T16:50:57.747Z,100260.55
2018-08-24T16:53:24.765Z,100259.18
2018-08-24T16:55:52.449Z,100261.28
2018-08-24T16:58:19.494Z,100263.60
2018-08-24T17:00:46.498Z,100268.92
2018-08-24T17:03:13.521Z,100275.56
2018-08-24T17:05:40.707Z,100277.48
2018-08-24T17:08:07.713Z,100282.20
2018-08-24T17:10:34.844Z,100292.57
2018-08-24T17:13:01.995Z,100289.62
2018-08-24T17:15:29.069Z,100285.13
2018-08-24T17:17:56.312Z,100291.30
2018-08-24T17:20:23.292Z,100283.80
2018-08-24T17:22:50.296Z,100283.45
2018-08-24T17:25:17.318Z,100289.62
2018-08-24T17:27:44.307Z,100284.50
2018-08-24T17:30:11.340Z,100280.52
2018-08-24T17:32:38.452Z,100280.93
2018-08-24T17:35:06.029Z,100274.79
2018-08-24T17:37:33.039Z,100277.50
2018-08-24T17:40:00.031Z,100281.48
2018-08-24T17:42:27.036Z,100281.41
2018-08-24T17:44:54.105Z,100280.00
2018-08-24T17:47:21.110Z,100283.59
2018-08-24T17:49:48.125Z,100283.01
2018-08-24T17:52:15.605Z,100281.19
2018-08-24T17:54:42.615Z,100294.50
2018-08-24T17:57:09.704Z,100295.50
2018-08-24T17:59:36.727Z,100290.21
2018-08-24T18:02:04.741Z,100290.59
2018-08-24T18:04:31.730Z,100282.33
2018-08-24T18:06:58.710Z,100291.87
2018-08-24T18:09:25.974Z,100296.62
2018-08-24T18:11:52.991Z,100301.31
2018-08-24T18:14:20.648Z,100290.75
2018-08-24T18:16:47.720Z,100301.33
2018-08-24T18:19:14.731Z,100304.43
2018-08-24T18:21:42.220Z,100304.88
2018-08-24T18:24:10.304Z,100303.38
2018-08-24T18:26:37.576Z,100312.46
2018-08-24T18:29:05.295Z,100321.06
2018-08-24T18:31:32.765Z,100322.98
2018-08-24T18:34:00.127Z,100324.39
2018-08-24T18:36:27.353Z,100328.75
2018-08-24T18:38:54.650Z,100326.09
2018-08-24T18:41:21.817Z,100329.64
2018-08-24T18:43:48.847Z,100329.38
2018-08-24T18:46:16.114Z,100322.62
2018-08-24T18:48:43.250Z,100319.91
2018-08-24T18:51:10.696Z,100320.11
2018-08-24T18:53:37.933Z,100322.74
2018-08-24T18:56:05.488Z,100320.02
2018-08-24T18:58:32.498Z,100337.97
2018-08-24T19:00:59.511Z,100337.39
2018-08-24T19:03:26.820Z,100339.83
2018-08-24T19:05:54.033Z,100340.05
2018-08-24T19:08:21.004Z,100340.58
2018-08-24T19:10:54.091Z,100341.11
2018-08-24T19:13:21.143Z,100341.44
2018-08-24T19:15:48.178Z,100342.56
2018-08-24T19:18:21.274Z,100343.09
2018-08-24T19:20:54.105Z,100349.13
2018-08-24T19:23:21.168Z,100351.60
2018-08-24T19:25:48.430Z,100344.02
2018-08-24T19:28:21.292Z,100346.33
2018-08-24T19:30:48.604Z,100348.00
2018-08-24T19:33:15.591Z,100339.36
2018-08-24T19:35:42.691Z,100336.38
2018-08-24T19:38:09.813Z,100331.53
2018-08-24T19:40:42.389Z,100334.70
2018-08-24T19:43:09.804Z,100334.20
2018-08-24T19:45:36.872Z,100332.27
2018-08-24T19:48:10.742Z,100336.87
2018-08-24T19:50:37.778Z,100343.48
2018-08-24T19:53:05.085Z,100338.98
2018-08-24T19:55:32.274Z,100333.80
2018-08-24T19:58:05.663Z,100334.72
2018-08-24T20:00:33.077Z,100334.80
2018-08-24T20:03:00.065Z,100337.88
2018-08-24T20:05:27.389Z,100338.20
2018-08-24T20:08:00.486Z,100342.61
2018-08-24T20:10:28.583Z,100343.47
2018-08-24T20:12:55.889Z,100347.12
2018-08-24T20:15:28.603Z,100345.19
2018-08-24T20:17:55.615Z,100348.25
2018-08-24T20:20:22.620Z,100349.73
2018-08-24T20:22:49.599Z,100346.13
2018-08-24T20:25:16.613Z,100339.47
2018-08-24T20:27:43.621Z,100348.66
2018-08-24T20:30:10.612Z,100352.03
2018-08-24T20:32:37.801Z,100353.89
2018-08-24T20:35:04.791Z,100351.44
2018-08-24T20:37:32.309Z,100342.08
2018-08-24T20:39:59.685Z,100341.22
2018-08-24T20:42:26.714Z,100346.59
2018-08-24T20:44:53.703Z,100347.12
2018-08-24T20:47:20.856Z,100340.68
2018-08-24T20:49:47.820Z,100347.80
2018-08-24T20:52:14.933Z,100351.58
2018-08-24T20:54:41.921Z,100349.78
2018-08-24T20:57:08.921Z,100352.70
2018-08-24T20:59:35.912Z,100354.16
2018-08-24T21:02:03.220Z,100350.23
2018-08-24T21:04:30.308Z,100343.16
2018-08-24T21:06:57.314Z,100347.61
2018-08-24T21:09:24.310Z,100340.81
2018-08-24T21:11:52.143Z,100342.08
2018-08-24T21:14:19.191Z,100341.41
2018-08-24T21:16:46.262Z,100348.87
2018-08-24T21:19:13.204Z,100353.44
2018-08-24T21:21:40.179Z,100356.36
2018-08-24T21:24:09.234Z,100353.92
2018-08-24T21:26:36.578Z,100352.30
2018-08-24T21:29:03.851Z,100348.52
2018-08-24T21:31:30.863Z,100345.67
2018-08-24T21:33:58.550Z,100342.34
2018-08-24T21:36:27.799Z,100343.28
2018-08-24T21:38:56.785Z,100340.95
2018-08-24T21:41:25.728Z,100341.03
2018-08-24T21:43:54.922Z,100345.55
2018-08-24T21:46:25.209Z,100341.41
2018-08-24T21:48:54.319Z,100352.58
2018-08-24T21:51:21.380Z,100340.09
2018-08-24T21:53:48.560Z,100347.15
2018-08-24T21:56:15.579Z,100340.88
2018-08-24T21:58:42.576Z,100335.59
2018-08-24T22:01:09.799Z,100327.67
2018-08-24T22:03:36.876Z,100330.00
2018-08-24T22:06:04.128Z,100326.80
2018-08-24T22:08:31.480Z,100328.52
2018-08-24T22:10:58.583Z,100325.58
2018-08-24T22:13:25.651Z,100322.14
2018-08-24T22:15:52.884Z,100320.73
2018-08-24T22:18:19.943Z,100322.48
2018-08-24T22:20:46.920Z,100326.28
2018-08-24T22:23:14.363Z,100320.59
2018-08-24T22:25:41.419Z,100323.82
2018-08-24T22:28:08.431Z,100318.34
2018-08-24T22:30:35.421Z,100314.92
2018-08-24T22:33:02.755Z,100321.22
2018-08-24T22:35:29.864Z,100321.87
2018-08-24T22:37:56.832Z,100314.22
2018-08-24T22:40:23.859Z,100309.34
2018-08-24T22:42:51.147Z,100304.64
2018-08-24T22:45:18.207Z,100297.34
2018-08-24T22:47:45.281Z,100295.08
2018-08-24T22:50:12.269Z,100298.23
2018-08-24T22:52:39.943Z,100295.08
2018-08-24T22:55:07.627Z,100298.86
2018-08-24T22:57:34.694Z,100293.70
2018-08-24T23:00:01.776Z,100300.76
2018-08-24T23:02:28.775Z,100298.09
2018-08-24T23:04:55.773Z,100301.01
2018-08-24T23:07:23.012Z,100295.82
2018-08-24T23:09:50.199Z,100293.25
2018-08-24T23:12:17.228Z,100291.59
2018-08-24T23:14:44.307Z,100278.55
2018-08-24T23:17:11.412Z,100275.02
2018-08-24T23:19:38.410Z,100273.61
2018-08-24T23:22:05.408Z,100274.47
2018-08-24T23:24:32.566Z,100264.34
2018-08-24T23:26:59.708Z,100261.33
2018-08-24T23:29:26.872Z,100257.90
2018-08-24T23:31:53.876Z,100259.77
2018-08-24T23:34:20.841Z,100258.52
2018-08-24T23:36:47.849Z,100259.95
2018-08-24T23:39:14.995Z,100259.80
2018-08-24T23:41:42.052Z,100260.14
2018-08-24T23:44:09.311Z,100259.19
2018-08-24T23:46:36.673Z,100257.78
2018-08-24T23:49:03.991Z,100253.05
2018-08-24T23:51:30.986Z,100254.95
2018-08-24T23:53:58.046Z,100253.23
2018-08-24T23:56:25.383Z,100260.16
2018-08-24T23:58:52.387Z,100257.09
